sensor_id;sensor_type;location;lat;lon;timestamp;pressure;altitude;pressure_sealevel;temperature;humidity
15558;BME280;7880;50.110;9.372;2023-03-15T00:04:25;1.930990393605316;;;1.937;100.0
15558;BME280;7880;50.110;9.372;2023-03-15T00:09:28;1.9410740064049605;;;1.875;100.0
15558;BME280;7880;50.110;9.372;2023-03-15T00:14:36;2.001575707650045;;;1.875;100.0
15558;BME280;7880;50.110;9.372;2023-03-15T00:19:38;2.0419101984298322;;;1.937;100.0
15558;BME280;7880;50.110;9.372;2023-03-15T00:24:46;1.966283043497242;;;1.875;100.0
15558;BME280;7880;50.110;9.372;2023-03-15T00:29:48;1.8099871308135334;;;1.75;100.0
15558;BME280;7880;50.110;9.372;2023-03-15T00:34:54;1.9108231714984867;;;1.812;100.0
15558;BME280;7880;50.110;9.372;2023-03-15T00:40:13;1.8351961300708353;;;1.75;100.0
15558;BME280;7880;50.110;9.372;2023-03-15T00:45:05;1.7898199366463814;;;1.687;100.0
15558;BME280;7880;50.110;9.372;2023-03-15T00:50:13;1.7394019716011826;;;1.687;100.0
15558;BME280;7880;50.110;9.372;2023-03-15T00:55:16;1.6738586605526506;;;1.625;100.0
15558;BME280;7880;50.110;9.372;2023-03-15T01:00:21;1.5679811081441586;;;1.562;100.0
15558;BME280;7880;50.110;9.372;2023-03-15T01:05:23;1.4721872427500784;;;1.437;100.0
15558;BME280;7880;50.110;9.372;2023-03-15T01:10:27;1.3965605811274144;;;1.375;100.0
15558;BME280;7880;50.110;9.372;2023-03-15T01:15:32;1.3259757560270373;;;1.312;100.0
15558;BME280;7880;50.110;9.372;2023-03-15T01:20:36;1.3763934824208264;;;1.312;100.0
15558;BME280;7880;50.110;9.372;2023-03-15T01:25:40;1.280599827156402;;;1.25;100.0
15558;BME280;7880;50.110;9.372;2023-03-15T01:30:48;1.2957251341606024;;;1.25;100.0
15558;BME280;7880;50.110;9.372;2023-03-15T01:35:57;1.2654745227715467;;;1.25;100.0
15558;BME280;7880;50.110;9.372;2023-03-15T01:40:55;1.230182156059891;;;1.187;100.0
15558;BME280;7880;50.110;9.372;2023-03-15T01:46:22;1.3108504437841475;;;1.25;100.0
15558;BME280;7880;50.110;9.372;2023-03-15T01:50:07;1.2957251341606024;;;1.187;100.0
15558;BME280;7880;50.110;9.372;2023-03-15T01:55:08;1.1696809891611337;;;1.187;100.0
15558;BME280;7880;50.110;9.372;2023-03-15T02:00:13;1.1343886611575726;;;1.125;100.0
15558;BME280;7880;50.110;9.372;2023-03-15T02:05:19;1.1595974654192105;;;1.125;100.0
15558;BME280;7880;50.110;9.372;2023-03-15T02:10:24;1.114221622986952;;;1.125;100.0
15558;BME280;7880;50.110;9.372;2023-03-15T02:15:22;0.9982612438732759;;;1.062;100.0
15558;BME280;7880;50.110;9.372;2023-03-15T02:20:33;1.013386501983041;;;0.937;100.0
15558;BME280;7880;50.110;9.372;2023-03-15T02:25:38;1.0083447489887476;;;0.937;100.0
15558;BME280;7880;50.110;9.372;2023-03-15T02:30:35;1.0940545894729439;;;1.0;100.0
15558;BME280;7880;50.110;9.372;2023-03-15T02:35:39;0.9024680033384357;;;0.875;100.0
15558;BME280;7880;50.110;9.372;2023-03-15T02:40:44;0.8722175281553064;;;0.812;100.0
15558;BME280;7880;50.110;9.372;2023-03-15T02:46:09;0.9377602376276627;;;0.937;100.0
15558;BME280;7880;50.110;9.372;2023-03-15T02:50:54;0.9528854852600489;;;0.875;100.0
15558;BME280;7880;50.110;9.372;2023-03-15T02:55:56;0.8823010187188629;;;0.812;100.0
15558;BME280;7880;50.110;9.372;2023-03-15T03:01:00;0.9226349926146213;;;0.875;100.0
15558;BME280;7880;50.110;9.372;2023-03-15T03:06:04;0.8923845104465726;;;0.812;100.0
15558;BME280;7880;50.110;9.372;2023-03-15T03:11:10;0.9730524861777667;;;0.875;100.0
15558;BME280;7880;50.110;9.372;2023-03-15T03:16:14;0.8722175281553064;;;0.812;100.0
15558;BME280;7880;50.110;9.372;2023-03-15T03:21:29;0.8117166092211846;;;0.75;100.0
15558;BME280;7880;50.110;9.372;2023-03-15T03:26:27;0.6705479613563512;;;0.625;100.0
15558;BME280;7880;50.110;9.372;2023-03-15T03:31:28;0.6907148970814887;;;0.687;100.0
15558;BME280;7880;50.110;9.372;2023-03-15T03:36:33;0.7865079053677618;;;0.687;100.0
15558;BME280;7880;50.110;9.372;2023-03-15T03:41:37;0.7209653094003443;;;0.687;100.0
15558;BME280;7880;50.110;9.372;2023-03-15T03:46:43;0.6100471821206156;;;0.562;100.0
15558;BME280;7880;50.110;9.372;2023-03-15T03:51:48;0.7007983666902874;;;0.625;100.0
15558;BME280;7880;50.110;9.372;2023-03-15T03:56:52;0.5344212670112028;;;0.5;100.0
15558;BME280;7880;50.110;9.372;2023-03-15T04:01:59;0.504170919302851;;;0.5;100.0
15558;BME280;7880;50.110;9.372;2023-03-15T04:07:00;0.45879541738540863;;;0.375;100.0
15558;BME280;7880;50.110;9.372;2023-03-15T04:12:05;0.3176273399556521;;;0.312;100.0
15558;BME280;7880;50.110;9.372;2023-03-15T04:17:10;0.3529193379217759;;;0.312;100.0
15558;BME280;7880;50.110;9.372;2023-03-15T04:22:25;0.3025022023357451;;;0.312;100.0
15558;BME280;7880;50.110;9.372;2023-03-15T04:27:23;0.3277107664907817;;;0.312;100.0
15558;BME280;7880;50.110;9.372;2023-03-15T04:32:21;0.2873770673351828;;;0.25;100.0
15558;BME280;7880;50.110;9.372;2023-03-15T04:37:26;0.1663760816270951;;;0.187;100.0
15558;BME280;7880;50.110;9.372;2023-03-15T04:42:35;0.14620926697389222;;;0.125;100.0
15558;BME280;7880;50.110;9.372;2023-03-15T04:47:34;0.20670972490333953;;;0.187;100.0
15558;BME280;7880;50.110;9.372;2023-03-15T04:52:37;0.2470433868060354;;;0.25;100.0
15558;BME280;7880;50.110;9.372;2023-03-15T04:57:41;0.2571268051920924;;;0.25;100.0
15558;BME280;7880;50.110;9.372;2023-03-15T05:02:51;0.1966263123380486;;;0.187;100.0
15558;BME280;7880;50.110;9.372;2023-03-15T05:07:49;0.21679313863278366;;;0.25;100.0
15558;BME280;7880;50.110;9.372;2023-03-15T05:12:52;0.3075439145846758;;;0.25;100.0
15558;BME280;7880;50.110;9.372;2023-03-15T05:17:56;0.3025022023357451;;;0.25;100.0
15558;BME280;7880;50.110;9.372;2023-03-15T05:23:00;0.2823353562504053;;;0.312;100.0
15558;BME280;7880;50.110;9.372;2023-03-15T05:28:05;0.2974604903778527;;;0.312;100.0
15558;BME280;7880;50.110;9.372;2023-03-15T05:33:08;0.23695996958413162;;;0.25;100.0
15558;BME280;7880;50.110;9.372;2023-03-15T05:38:25;0.3125856271246448;;;0.312;100.0
15558;BME280;7880;50.110;9.372;2023-03-15T05:43:18;0.3579610530810896;;;0.312;100.0
15558;BME280;7880;50.110;9.372;2023-03-15T05:48:23;0.3176273399556521;;;0.312;100.0
15558;BME280;7880;50.110;9.372;2023-03-15T05:53:31;0.4033365026116371;;;0.375;100.0
15558;BME280;7880;50.110;9.372;2023-03-15T05:58:31;0.46887886021868325;;;0.437;100.0
15558;BME280;7880;50.110;9.372;2023-03-15T06:03:37;0.514254367374815;;;0.437;100.0
15558;BME280;7880;50.110;9.372;2023-03-15T06:08:38;0.5697133525798563;;;0.562;100.0
15558;BME280;7880;50.110;9.372;2023-03-15T06:13:43;0.504170919302851;;;0.562;100.0
15558;BME280;7880;50.110;9.372;2023-03-15T06:18:45;0.5192960918473546;;;0.562;100.0
15558;BME280;7880;50.110;9.372;2023-03-15T06:23:49;0.4487119757162873;;;0.437;100.0
15558;BME280;7880;50.110;9.372;2023-03-15T06:28:53;0.47392058207187804;;;0.5;100.0
15558;BME280;7880;50.110;9.372;2023-03-15T06:33:59;0.6100471821206156;;;0.5;100.0
15558;BME280;7880;50.110;9.372;2023-03-15T06:39:05;0.695756631740369;;;0.625;100.0
15558;BME280;7880;50.110;9.372;2023-03-15T06:44:09;0.6201306424161885;;;0.562;100.0
15558;BME280;7880;50.110;9.372;2023-03-15T06:49:10;0.47392058207187804;;;0.5;100.0
15558;BME280;7880;50.110;9.372;2023-03-15T06:54:12;0.42350337663665416;;;0.375;100.0
15558;BME280;7880;50.110;9.372;2023-03-15T06:59:23;0.4487119757162873;;;0.375;100.0
15558;BME280;7880;50.110;9.372;2023-03-15T07:04:22;0.5545881713042036;;;0.437;100.0
15558;BME280;7880;50.110;9.372;2023-03-15T07:09:27;0.5596298981050495;;;0.5;100.0
15558;BME280;7880;50.110;9.372;2023-03-15T07:14:33;0.7612992087902967;;;0.687;100.0
15558;BME280;7880;50.110;9.372;2023-03-15T07:19:41;0.7108818374632392;;;0.625;100.0
15558;BME280;7880;50.110;9.372;2023-03-15T07:24:41;0.5344212670112028;;;0.562;100.0
15558;BME280;7880;50.110;9.372;2023-03-15T07:29:45;0.695756631740369;;;0.625;100.0
15558;BME280;7880;50.110;9.372;2023-03-15T07:34:48;0.6503810302878265;;;0.625;100.0
15558;BME280;7880;50.110;9.372;2023-03-15T07:39:52;0.4083782206813339;;;0.437;100.0
15558;BME280;7880;50.110;9.372;2023-03-15T07:44:56;0.5545881713042036;;;0.5;100.0
15558;BME280;7880;50.110;9.372;2023-03-15T07:50:13;0.5545881713042036;;;0.5;100.0
15558;BME280;7880;50.110;9.372;2023-03-15T07:55:07;0.5697133525798563;;;0.562;100.0
15558;BME280;7880;50.110;9.372;2023-03-15T08:00:13;0.5192960918473546;;;0.5;100.0
15558;BME280;7880;50.110;9.372;2023-03-15T08:05:21;0.6302141038759146;;;0.562;100.0
15558;BME280;7880;50.110;9.372;2023-03-15T08:10:23;0.6150889121228829;;;0.562;100.0
15558;BME280;7880;50.110;9.372;2023-03-15T08:15:28;0.5192960918473546;;;0.5;100.0
15558;BME280;7880;50.110;9.372;2023-03-15T08:20:33;0.46887886021868325;;;0.437;100.0
15558;BME280;7880;50.110;9.372;2023-03-15T08:25:40;0.46887886021868325;;;0.437;100.0
15558;BME280;7880;50.110;9.372;2023-03-15T08:30:41;0.5949219938600436;;;0.562;100.0
15558;BME280;7880;50.110;9.372;2023-03-15T08:35:45;0.42854509587050416;;;0.437;100.0
15558;BME280;7880;50.110;9.372;2023-03-15T08:40:55;0.7108818374632392;;;0.687;100.0
15558;BME280;7880;50.110;9.372;2023-03-15T08:45:53;0.7360905194887891;;;0.75;100.0
15558;BME280;7880;50.110;9.372;2023-03-15T08:51:00;0.8318835775426123;;;0.75;100.0
15558;BME280;7880;50.110;9.372;2023-03-15T08:56:01;0.7108818374632392;;;0.687;100.0
15558;BME280;7880;50.110;9.372;2023-03-15T09:01:11;0.6655062281526625;;;0.687;100.0
15558;BME280;7880;50.110;9.372;2023-03-15T09:06:13;0.7360905194887891;;;0.687;100.0
15558;BME280;7880;50.110;9.372;2023-03-15T09:11:21;0.9428019865474198;;;0.875;100.0
15558;BME280;7880;50.110;9.372;2023-03-15T09:16:15;0.9226349926146213;;;0.812;100.0
15558;BME280;7880;50.110;9.372;2023-03-15T09:21:18;0.9327184889989439;;;0.875;100.0
15558;BME280;7880;50.110;9.372;2023-03-15T09:26:22;0.9629689851368312;;;0.875;100.0
15558;BME280;7880;50.110;9.372;2023-03-15T09:31:33;0.9125514973944518;;;0.937;100.0
15558;BME280;7880;50.110;9.372;2023-03-15T09:36:33;0.9831359883828554;;;1.0;100.0
15558;BME280;7880;50.110;9.372;2023-03-15T09:41:41;1.0940545894729439;;;1.062;100.0
15558;BME280;7880;50.110;9.372;2023-03-15T09:46:48;1.048678781092167;;;1.0;100.0
15558;BME280;7880;50.110;9.372;2023-03-15T09:51:51;1.073887560615549;;;1.062;100.0
15558;BME280;7880;50.110;9.372;2023-03-15T09:56:56;1.1545557039848062;;;1.062;100.0
15558;BME280;7880;50.110;9.372;2023-03-15T10:01:56;1.230182156059891;;;1.187;100.0
15558;BME280;7880;50.110;9.372;2023-03-15T10:07:01;1.2654745227715467;;;1.187;100.0
15558;BME280;7880;50.110;9.372;2023-03-15T10:12:07;1.2402656879508869;;;1.25;100.0
15558;BME280;7880;50.110;9.372;2023-03-15T10:17:11;1.3108504437841475;;;1.25;100.0
15558;BME280;7880;50.110;9.372;2023-03-15T10:22:21;1.4368947925104294;;;1.375;100.0
15558;BME280;7880;50.110;9.372;2023-03-15T10:27:20;1.351184615585953;;;1.375;100.0
15558;BME280;7880;50.110;9.372;2023-03-15T10:32:29;1.4419365702429787;;;1.437;100.0
15558;BME280;7880;50.110;9.372;2023-03-15T10:37:54;1.3864770311920438;;;1.437;100.0
15558;BME280;7880;50.110;9.372;2023-03-15T10:43:00;1.552855753991753;;;1.5;100.0
15558;BME280;7880;50.110;9.372;2023-03-15T10:48:02;1.7293183820846025;;;1.625;100.0
15558;BME280;7880;50.110;9.372;2023-03-15T10:53:10;1.557897538418183;;;1.562;100.0
15558;BME280;7880;50.110;9.372;2023-03-15T10:58:19;1.603273611352779;;;1.562;100.0
15558;BME280;7880;50.110;9.372;2023-03-15T11:03:17;1.7091512065439018;;;1.625;100.0
15558;BME280;7880;50.110;9.372;2023-03-15T11:08:22;1.7394019716011826;;;1.687;100.0
15558;BME280;7880;50.110;9.372;2023-03-15T11:13:25;1.8099871308135334;;;1.75;100.0
15558;BME280;7880;50.110;9.372;2023-03-15T11:18:32;1.8452797318110243;;;1.812;100.0
15558;BME280;7880;50.110;9.372;2023-03-15T11:23:35;1.8604051366040948;;;1.812;100.0
15558;BME280;7880;50.110;9.372;2023-03-15T11:28:41;2.3444194729963783;;;2.25;100.0
15558;BME280;7880;50.110;9.372;2023-03-15T11:33:50;2.2385411077179014;;;2.187;100.0
15558;BME280;7880;50.110;9.372;2023-03-15T11:38:47;2.354503133526305;;;2.312;100.0
15558;BME280;7880;50.110;9.372;2023-03-15T11:44:12;2.243582931725541;;;2.187;100.0
15558;BME280;7880;50.110;9.372;2023-03-15T11:49:02;2.42508878983208;;;2.375;100.0
15558;BME280;7880;50.110;9.372;2023-03-15T11:54:06;2.455339802853996;;;2.375;100.0
15558;BME280;7880;50.110;9.372;2023-03-15T11:58:32;2.2738338818831836;;;2.312;100.0
15558;BME280;7880;50.110;9.372;2023-03-15T12:09:46;2.5259255406504963;;;2.437;100.0
15558;BME280;7880;50.110;9.372;2023-03-15T12:15:01;2.4099632872501386;;;2.375;100.0
15558;BME280;7880;50.110;9.372;2023-03-15T12:19:43;2.3444194729963783;;;2.312;100.0
15558;BME280;7880;50.110;9.372;2023-03-15T12:24:47;2.4049214536382353;;;2.312;100.0
15558;BME280;7880;50.110;9.372;2023-03-15T12:29:58;2.6065950251242613;;;2.562;100.0
15558;BME280;7880;50.110;9.372;2023-03-15T12:34:58;2.9292737080773805;;;2.812;100.0
15558;BME280;7880;50.110;9.372;2023-03-15T12:40:33;2.752808655635454;;;2.75;100.0
15558;BME280;7880;50.110;9.372;2023-03-15T12:45:36;2.893980669067241;;;2.875;100.0
15558;BME280;7880;50.110;9.372;2023-03-15T12:50:37;2.818352776352549;;;2.812;100.0
15558;BME280;7880;50.110;9.372;2023-03-15T12:55:27;2.8788550852856134;;;2.937;100.0
15558;BME280;7880;50.110;9.372;2023-03-15T13:00:32;3.05027852152125;;;3.0;100.0
15558;BME280;7880;50.110;9.372;2023-03-15T13:05:49;2.934315571957268;;;2.937;100.0
15558;BME280;7880;50.110;9.372;2023-03-15T13:10:52;3.1107809911074584;;;3.062;100.0
15558;BME280;7880;50.110;9.372;2023-03-15T13:15:56;3.2267441749572754;;;3.187;100.0
15558;BME280;7880;50.110;9.372;2023-03-15T13:20:59;3.201534774067113;;;3.25;100.0
15558;BME280;7880;50.110;9.372;2023-03-15T13:26:04;3.287246766779572;;;3.375;100.0
15558;BME280;7880;50.110;9.372;2023-03-15T13:30:57;3.48892237553373;;;3.5;100.0
15558;BME280;7880;50.110;9.372;2023-03-15T13:36:09;3.3780007330933586;;;3.5;100.0
15558;BME280;7880;50.110;9.372;2023-03-15T13:41:17;2.7981853493547533;;;2.875;100.0
15558;BME280;7880;50.110;9.372;2023-03-15T13:46:24;2.7981853493547533;;;2.812;100.0
15558;BME280;7880;50.110;9.372;2023-03-15T13:51:20;3.030111040972406;;;3.0;100.0
15558;BME280;7880;50.110;9.372;2023-03-15T13:56:27;3.231786056008423;;;3.187;100.0
15558;BME280;7880;50.110;9.372;2023-03-15T14:01:24;3.322539964696625;;;3.312;100.0
15558;BME280;7880;50.110;9.372;2023-03-15T14:06:30;3.3275818512775004;;;3.437;100.0
15558;BME280;7880;50.110;9.372;2023-03-15T14:11:44;3.5342994516773616;;;3.562;100.0
15558;BME280;7880;50.110;9.372;2023-03-15T14:16:40;3.614969867473701;;;3.625;100.0
15558;BME280;7880;50.110;9.372;2023-03-15T14:21:47;3.514131859369809;;;3.625;100.0
15558;BME280;7880;50.110;9.372;2023-03-15T14:26:51;3.4788385840365663;;;3.5;100.0
15558;BME280;7880;50.110;9.372;2023-03-15T14:31:50;3.6805146351689473;;;3.75;100.0
15558;BME280;7880;50.110;9.372;2023-03-15T14:37:00;3.6401793876895683;;;3.687;100.0
15558;BME280;7880;50.110;9.372;2023-03-15T14:42:01;3.5948022565396966;;;3.75;100.0
15558;BME280;7880;50.110;9.372;2023-03-15T14:47:11;3.725891810847679;;;3.812;100.0
15558;BME280;7880;50.110;9.372;2023-03-15T14:52:11;3.8872330708487426;;;4.0;100.0
15558;BME280;7880;50.110;9.372;2023-03-15T14:57:17;3.9880715096893256;;;4.062;100.0
15558;BME280;7880;50.110;9.372;2023-03-15T15:02:19;4.008239211427281;;;4.125;100.0
15558;BME280;7880;50.110;9.372;2023-03-15T15:07:22;3.836813895084197;;;4.0;100.0
15558;BME280;7880;50.110;9.372;2023-03-15T15:12:25;3.8216881480300797;;;3.937;100.0
15558;BME280;7880;50.110;9.372;2023-03-15T15:17:35;3.7863947484234814;;;3.937;100.0
15558;BME280;7880;50.110;9.372;2023-03-15T15:22:37;3.7208499012747778;;;3.875;100.0
15558;BME280;7880;50.110;9.372;2023-03-15T15:27:38;3.776310922583798;;;3.875;100.0
15558;BME280;7880;50.110;9.372;2023-03-15T15:32:46;3.700682265893556;;;3.812;100.0
15558;BME280;7880;50.110;9.372;2023-03-15T15:37:48;3.7208499012747778;;;3.812;100.0
15558;BME280;7880;50.110;9.372;2023-03-15T15:42:52;3.836813895084197;;;3.937;100.0
15558;BME280;7880;50.110;9.372;2023-03-15T15:47:55;3.836813895084197;;;3.937;100.0
15558;BME280;7880;50.110;9.372;2023-03-15T15:53:01;3.796478575427318;;;3.937;100.0
15558;BME280;7880;50.110;9.372;2023-03-15T15:58:05;3.7561432743968908;;;3.875;100.0
15558;BME280;7880;50.110;9.372;2023-03-15T16:03:11;3.7712690101005135;;;3.875;100.0
15558;BME280;7880;50.110;9.372;2023-03-15T16:08:21;3.6401793876895683;;;3.75;100.0
15558;BME280;7880;50.110;9.372;2023-03-15T16:13:19;3.5746346502623054;;;3.687;100.0
15558;BME280;7880;50.110;9.372;2023-03-15T16:18:24;3.56455084886984;;;3.687;100.0
15558;BME280;7880;50.110;9.372;2023-03-15T16:23:29;3.5191737570101393;;;3.625;100.0
15558;BME280;7880;50.110;9.372;2023-03-15T16:28:33;3.5242156549415085;;;3.562;100.0
15558;BME280;7880;50.110;9.372;2023-03-15T16:33:57;3.433461536705727;;;3.562;100.0
15558;BME280;7880;50.110;9.372;2023-03-15T16:38:42;3.433461536705727;;;3.5;100.0
15558;BME280;7880;50.110;9.372;2023-03-15T16:43:46;3.282204882527003;;;3.375;100.0
15558;BME280;7880;50.110;9.372;2023-03-15T16:48:49;3.1006972432660405;;;3.125;100.0
15558;BME280;7880;50.110;9.372;2023-03-15T16:53:56;3.05027852152125;;;3.062;100.0
15558;BME280;7880;50.110;9.372;2023-03-15T16:58:59;2.9393574361281933;;;2.937;100.0
15558;BME280;7880;50.110;9.372;2023-03-15T17:02:32;2.974650493473746;;;2.937;100.0
15558;BME280;7880;50.110;9.372;2023-03-15T17:07:37;2.73264124377165;;;2.75;100.0
15558;BME280;7880;50.110;9.372;2023-03-15T17:12:41;2.687264584103832;;;2.687;100.0
15558;BME280;7880;50.110;9.372;2023-03-15T17:17:45;2.783059782162309;;;2.687;100.0
15558;BME280;7880;50.110;9.372;2023-03-15T17:22:50;2.5763439597154503;;;2.5;100.0
15558;BME280;7880;50.110;9.372;2023-03-15T17:27:53;2.5864276470209004;;;2.5;100.0
15558;BME280;7880;50.110;9.372;2023-03-15T17:32:59;2.3595449642278252;;;2.312;100.0
15558;BME280;7880;50.110;9.372;2023-03-15T17:38:04;2.0368683860637247;;;2.0;100.0
15558;BME280;7880;50.110;9.372;2023-03-15T17:43:10;2.062077450804645;;;1.937;100.0
15558;BME280;7880;50.110;9.372;2023-03-15T17:48:11;1.961241235496709;;;1.812;100.0
15558;BME280;7880;50.110;9.372;2023-03-15T17:53:17;1.9410740064049605;;;1.75;100.0
15558;BME280;7880;50.110;9.372;2023-03-15T17:58:23;1.7595691541268024;;;1.625;100.0
15558;BME280;7880;50.110;9.372;2023-03-15T18:03:26;1.7999035331478808;;;1.625;100.0
15558;BME280;7880;50.110;9.372;2023-03-15T18:08:30;1.5679811081441586;;;1.437;100.0
15558;BME280;7880;50.110;9.372;2023-03-15T18:13:37;1.4419365702429787;;;1.312;100.0
15558;BME280;7880;50.110;9.372;2023-03-15T18:18:39;1.4066441322269383;;;1.187;100.0
15558;BME280;7880;50.110;9.372;2023-03-15T18:23:46;1.3461428430920932;;;1.125;100.0
15558;BME280;7880;50.110;9.372;2023-03-15T18:28:48;1.2251403905509506;;;1.062;100.0
15558;BME280;7880;50.110;9.372;2023-03-15T18:33:54;1.285641595866764;;;1.062;100.0
15558;BME280;7880;50.110;9.372;2023-03-15T18:38:57;1.18984804013744;;;1.0;100.0
15558;BME280;7880;50.110;9.372;2023-03-15T18:44:01;1.0234700088447426;;;0.812;100.0
15558;BME280;7880;50.110;9.372;2023-03-15T18:49:15;0.9831359883828554;;;0.812;100.0
15558;BME280;7880;50.110;9.372;2023-03-15T18:54:09;1.0033029962854925;;;0.812;100.0
15558;BME280;7880;50.110;9.372;2023-03-15T18:59:18;0.8671757833100855;;;0.75;100.0
15558;BME280;7880;50.110;9.372;2023-03-15T19:04:18;0.9175932448590174;;;0.687;100.0
15558;BME280;7880;50.110;9.372;2023-03-15T19:09:25;0.9478437357582152;;;0.687;100.0
15558;BME280;7880;50.110;9.372;2023-03-15T19:14:29;0.8923845104465726;;;0.687;100.0
15558;BME280;7880;50.110;9.372;2023-03-15T19:19:34;0.7814661654701922;;;0.625;100.0
15558;BME280;7880;50.110;9.372;2023-03-15T19:24:38;0.6402975664997939;;;0.5;100.0
15558;BME280;7880;50.110;9.372;2023-03-15T19:29:43;0.6806314286368433;;;0.437;100.0
15558;BME280;7880;50.110;9.372;2023-03-15T19:34:47;0.7058401019312441;;;0.5;100.0
15558;BME280;7880;50.110;9.372;2023-03-15T19:39:51;0.6453392982482911;;;0.437;100.0
15558;BME280;7880;50.110;9.372;2023-03-15T19:44:56;0.5293795416655485;;;0.312;100.0
15558;BME280;7880;50.110;9.372;2023-03-15T19:50:01;0.46887886021868325;;;0.312;100.0
15558;BME280;7880;50.110;9.372;2023-03-15T19:55:08;0.3226690530776978;;;0.125;100.0
15558;BME280;7880;50.110;9.372;2023-03-15T20:00:19;0.4386285352113191;;;0.187;100.0
15558;BME280;7880;50.110;9.372;2023-03-15T20:05:18;0.36804448427283204;;;0.125;100.0
15558;BME280;7880;50.110;9.372;2023-03-15T20:10:21;0.42350337663665416;;;0.187;100.0
15558;BME280;7880;50.110;9.372;2023-03-15T20:15:35;0.2218348459340632;;;0.062;100.0
15558;BME280;7880;50.110;9.372;2023-03-15T20:20:30;0.5949219938600436;;;0.5;100.0
15558;BME280;7880;50.110;9.372;2023-03-15T20:25:35;0.26721022474230266;;;0.125;100.0
15558;BME280;7880;50.110;9.372;2023-03-15T20:30:43;0.10587565163732507;;;-0.062;100.0
15558;BME280;7880;50.110;9.372;2023-03-15T20:35:45;0.1260424569773022;;;0.0;100.0
15558;BME280;7880;50.110;9.372;2023-03-15T20:40:52;0.08066715151071549;;;-0.062;100.0
15558;BME280;7880;50.110;9.372;2023-03-15T20:45:55;0.025208476843545213;;;-0.125;100.0
15558;BME280;7880;50.110;9.372;2023-03-15T20:50:59;-0.19158418623264878;;;-0.375;100.0
15558;BME280;7880;50.110;9.372;2023-03-15T20:56:05;-0.23695932668051684;;;-0.375;100.0
15558;BME280;7880;50.110;9.372;2023-03-15T21:01:09;-0.11595889976597391;;;-0.312;100.0
15558;BME280;7880;50.110;9.372;2023-03-15T21:06:11;-0.25208436825778335;;;-0.437;100.0
15558;BME280;7880;50.110;9.372;2023-03-15T21:11:16;-0.12604227507836185;;;-0.312;100.0
15558;BME280;7880;50.110;9.372;2023-03-15T21:16:20;-0.14116733586415647;;;-0.312;100.0
15558;BME280;7880;50.110;9.372;2023-03-15T21:21:26;-0.43862633234239184;;;-0.562;100.0
15558;BME280;7880;50.110;9.372;2023-03-15T21:26:35;-0.47895967759541236;;;-0.625;100.0
15558;BME280;7880;50.110;9.372;2023-03-15T21:31:36;-0.5445013239048422;;;-0.75;100.0
15558;BME280;7880;50.110;9.372;2023-03-15T21:36:40;-0.33779288771911525;;;-0.5;100.0
15558;BME280;7880;50.110;9.372;2023-03-15T21:41:44;-0.6251678979955614;;;-0.75;100.0
15558;BME280;7880;50.110;9.372;2023-03-15T21:46:49;-0.6302095564024057;;;-0.812;100.0
15558;BME280;7880;50.110;9.372;2023-03-15T21:51:52;-0.6100429210287984;;;-0.75;100.0
15558;BME280;7880;50.110;9.372;2023-03-15T21:56:57;-0.8974170354893432;;;-1.062;100.0
15558;BME280;7880;50.110;9.372;2023-03-15T22:02:03;-0.8369173004990443;;;-1.0;100.0
15558;BME280;7880;50.110;9.372;2023-03-15T22:06:48;-0.8369173004990443;;;-1.0;100.0
15558;BME280;7880;50.110;9.372;2023-03-15T22:11:54;-0.8369173004990443;;;-0.937;100.0
15558;BME280;7880;50.110;9.372;2023-03-15T22:16:58;-0.7965841205557809;;;-0.937;100.0
15558;BME280;7880;50.110;9.372;2023-03-15T22:21:59;-0.8923753925075288;;;-1.062;100.0
15558;BME280;7880;50.110;9.372;2023-03-15T22:27:03;-0.9680000066757202;;;-1.125;100.0
15558;BME280;7880;50.110;9.372;2023-03-15T22:32:08;-0.731042663421249;;;-0.937;100.0
15558;BME280;7880;50.110;9.372;2023-03-15T22:37:14;-1.0537078235705848;;;-1.187;100.0
15558;BME280;7880;50.110;9.372;2023-03-15T22:42:23;-0.816750712855719;;;-1.062;100.0
15558;BME280;7880;50.110;9.372;2023-03-15T22:47:22;-0.9327085282129701;;;-1.0;100.0
15558;BME280;7880;50.110;9.372;2023-03-15T22:52:26;-0.8974170354893432;;;-1.062;100.0
15558;BME280;7880;50.110;9.372;2023-03-15T22:57:31;-0.9780832836171612;;;-1.125;100.0
15558;BME280;7880;50.110;9.372;2023-03-15T23:02:36;-0.9982498340075836;;;-1.062;100.0
15558;BME280;7880;50.110;9.372;2023-03-15T23:07:45;-1.2452896983770188;;;-1.25;100.0
15558;BME280;7880;50.110;9.372;2023-03-15T23:12:43;-1.0133747437444982;;;-1.125;100.0
15558;BME280;7880;50.110;9.372;2023-03-15T23:17:46;-1.0537078235705848;;;-1.187;100.0
15558;BME280;7880;50.110;9.372;2023-03-15T23:22:53;-1.0839576212165412;;;-1.25;100.0
15558;BME280;7880;50.110;9.372;2023-03-15T23:27:57;-1.1545404416450764;;;-1.25;100.0
15558;BME280;7880;50.110;9.372;2023-03-15T23:33:02;-1.2251232050301042;;;-1.375;100.0
15558;BME280;7880;50.110;9.372;2023-03-15T23:38:05;-1.164623697049683;;;-1.25;100.0
15558;BME280;7880;50.110;9.372;2023-03-15T23:43:09;-1.0587494572391734;;;-1.187;100.0
15558;BME280;7880;50.110;9.372;2023-03-15T23:48:14;-1.1595820694928989;;;-1.312;100.0
15558;BME280;7880;50.110;9.372;2023-03-15T23:53:17;-1.2503313209861517;;;-1.375;100.0
15558;BME280;7880;50.110;9.372;2023-03-15T23:58:21;-1.2755394296662417;;;-1.375;100.0
